Porter Corners, New York
Current Conditions -  °F | °C
As of 6:53 AM on Thursday 27 Nov 2014 (Local Time) from KGFL Reporting Station
Overcast Overcast  
Wind Chill: -1°   Ceiling: 2400
Heat Index: -1°   Visibility: 10mi
Dew Point: -4°   Wind: 3mph
Humidity: 79%   Direction: 350°N
Pressure: 29.96"   Gusts: NA
Location:  43.15°N, 73.89°W
Report Text: KGFL 271153Z AUTO 35003KT 10SM OVC024 M01/M04 A2996 RMK AO2 SLP154 60000 70032 T10111044 11006 21011 53016
Loading
Personal Weather Stations






























Interactive Weather Map New forecast layout! Learn more

10-Day Weather Forecast

Advertisements
Track Severe Weather on mobile